sensor_id;sensor_type;location;lat;lon;timestamp;pressure;altitude;pressure_sealevel;temperature;humidity
75646;BME280;64237;52.438;13.240;2023-09-08T00:02:26;101798.78;;;15.87;100.00
75646;BME280;64237;52.438;13.240;2023-09-08T00:04:52;101795.41;;;15.85;100.00
75646;BME280;64237;52.438;13.240;2023-09-08T00:07:21;101786.44;;;15.83;100.00
75646;BME280;64237;52.438;13.240;2023-09-08T00:09:46;101786.13;;;15.79;100.00
75646;BME280;64237;52.438;13.240;2023-09-08T00:12:17;101779.69;;;15.79;100.00
75646;BME280;64237;52.438;13.240;2023-09-08T00:14:45;101781.28;;;15.74;100.00
75646;BME280;64237;52.438;13.240;2023-09-08T00:17:14;101793.69;;;15.67;100.00
75646;BME280;64237;52.438;13.240;2023-09-08T00:19:42;101787.09;;;15.56;100.00
75646;BME280;64237;52.438;13.240;2023-09-08T00:22:11;101792.03;;;15.54;100.00
75646;BME280;64237;52.438;13.240;2023-09-08T00:24:36;101788.06;;;15.50;100.00
75646;BME280;64237;52.438;13.240;2023-09-08T00:27:01;101779.25;;;15.41;100.00
75646;BME280;64237;52.438;13.240;2023-09-08T00:29:27;101778.41;;;15.41;100.00
75646;BME280;64237;52.438;13.240;2023-09-08T00:31:55;101780.09;;;15.42;100.00
75646;BME280;64237;52.438;13.240;2023-09-08T00:34:20;101780.03;;;15.37;100.00
75646;BME280;64237;52.438;13.240;2023-09-08T00:36:49;101777.88;;;15.27;100.00
75646;BME280;64237;52.438;13.240;2023-09-08T00:39:17;101785.03;;;15.23;100.00
75646;BME280;64237;52.438;13.240;2023-09-08T00:41:46;101774.63;;;15.19;100.00
75646;BME280;64237;52.438;13.240;2023-09-08T00:44:11;101769.75;;;15.26;100.00
75646;BME280;64237;52.438;13.240;2023-09-08T00:46:37;101777.75;;;15.22;100.00
75646;BME280;64237;52.438;13.240;2023-09-08T00:49:05;101778.00;;;15.21;100.00
75646;BME280;64237;52.438;13.240;2023-09-08T00:51:31;101776.91;;;15.22;100.00
75646;BME280;64237;52.438;13.240;2023-09-08T00:53:57;101779.22;;;15.25;100.00
75646;BME280;64237;52.438;13.240;2023-09-08T00:56:23;101779.22;;;15.25;100.00
75646;BME280;64237;52.438;13.240;2023-09-08T00:58:49;101772.44;;;15.21;100.00
75646;BME280;64237;52.438;13.240;2023-09-08T01:01:15;101773.78;;;15.18;100.00
75646;BME280;64237;52.438;13.240;2023-09-08T01:03:45;101776.97;;;15.10;100.00
75646;BME280;64237;52.438;13.240;2023-09-08T01:06:10;101778.81;;;15.04;100.00
75646;BME280;64237;52.438;13.240;2023-09-08T01:08:36;101774.91;;;15.05;100.00
75646;BME280;64237;52.438;13.240;2023-09-08T01:11:06;101777.81;;;15.11;100.00
75646;BME280;64237;52.438;13.240;2023-09-08T01:13:32;101771.66;;;15.08;100.00
75646;BME280;64237;52.438;13.240;2023-09-08T01:16:01;101767.75;;;15.09;100.00
75646;BME280;64237;52.438;13.240;2023-09-08T01:18:26;101770.56;;;15.09;100.00
75646;BME280;64237;52.438;13.240;2023-09-08T01:26:41;101768.16;;;15.01;100.00
75646;BME280;64237;52.438;13.240;2023-09-08T01:29:07;101763.91;;;14.99;100.00
75646;BME280;64237;52.438;13.240;2023-09-08T01:31:49;101763.72;;;14.89;100.00
75646;BME280;64237;52.438;13.240;2023-09-08T01:34:15;101765.53;;;14.83;100.00
75646;BME280;64237;52.438;13.240;2023-09-08T01:36:53;101759.97;;;14.83;100.00
75646;BME280;64237;52.438;13.240;2023-09-08T01:39:18;101763.00;;;14.82;100.00
75646;BME280;64237;52.438;13.240;2023-09-08T01:41:49;101761.66;;;14.84;100.00
75646;BME280;64237;52.438;13.240;2023-09-08T01:44:15;101754.88;;;14.80;100.00
75646;BME280;64237;52.438;13.240;2023-09-08T01:46:46;101753.69;;;14.76;100.00
75646;BME280;64237;52.438;13.240;2023-09-08T01:49:12;101764.13;;;14.69;100.00
75646;BME280;64237;52.438;13.240;2023-09-08T01:51:37;101758.19;;;14.65;100.00
75646;BME280;64237;52.438;13.240;2023-09-08T01:54:05;101753.59;;;14.71;100.00
75646;BME280;64237;52.438;13.240;2023-09-08T01:56:40;101747.41;;;14.69;100.00
75646;BME280;64237;52.438;13.240;2023-09-08T01:59:05;101754.69;;;14.70;100.00
75646;BME280;64237;52.438;13.240;2023-09-08T02:01:36;101753.31;;;14.72;100.00
75646;BME280;64237;52.438;13.240;2023-09-08T02:04:02;101748.59;;;14.73;100.00
75646;BME280;64237;52.438;13.240;2023-09-08T02:06:30;101739.66;;;14.71;100.00
75646;BME280;64237;52.438;13.240;2023-09-08T02:08:55;101734.09;;;14.71;100.00
75646;BME280;64237;52.438;13.240;2023-09-08T02:11:23;101744.03;;;14.67;100.00
75646;BME280;64237;52.438;13.240;2023-09-08T02:13:49;101746.22;;;14.65;100.00
75646;BME280;64237;52.438;13.240;2023-09-08T02:16:15;101738.94;;;14.64;100.00
75646;BME280;64237;52.438;13.240;2023-09-08T02:18:50;101731.81;;;14.68;100.00
75646;BME280;64237;52.438;13.240;2023-09-08T02:21:15;101727.31;;;14.67;100.00
75646;BME280;64237;52.438;13.240;2023-09-08T02:23:49;101728.66;;;14.64;100.00
75646;BME280;64237;52.438;13.240;2023-09-08T02:26:15;101732.78;;;14.62;100.00
75646;BME280;64237;52.438;13.240;2023-09-08T02:28:43;101731.19;;;14.66;100.00
75646;BME280;64237;52.438;13.240;2023-09-08T02:31:11;101726.00;;;14.58;100.00
75646;BME280;64237;52.438;13.240;2023-09-08T02:33:37;101727.56;;;14.54;100.00
75646;BME280;64237;52.438;13.240;2023-09-08T02:36:04;101730.47;;;14.59;100.00
75646;BME280;64237;52.438;13.240;2023-09-08T02:38:35;101734.84;;;14.55;100.00
75646;BME280;64237;52.438;13.240;2023-09-08T02:41:01;101729.28;;;14.55;100.00
75646;BME280;64237;52.438;13.240;2023-09-08T02:43:26;101742.25;;;14.49;100.00
75646;BME280;64237;52.438;13.240;2023-09-08T02:45:55;101736.69;;;14.49;100.00
75646;BME280;64237;52.438;13.240;2023-09-08T02:48:20;101727.38;;;14.44;100.00
75646;BME280;64237;52.438;13.240;2023-09-08T02:50:52;101731.25;;;14.43;100.00
75646;BME280;64237;52.438;13.240;2023-09-08T02:53:18;101731.25;;;14.43;100.00
75646;BME280;64237;52.438;13.240;2023-09-08T02:55:47;101729.06;;;14.45;100.00
75646;BME280;64237;52.438;13.240;2023-09-08T02:58:12;101727.38;;;14.44;100.00
75646;BME280;64237;52.438;13.240;2023-09-08T03:00:40;101721.81;;;14.44;100.00
75646;BME280;64237;52.438;13.240;2023-09-08T03:03:05;101719.34;;;14.35;100.00
75646;BME280;64237;52.438;13.240;2023-09-08T03:05:34;101721.28;;;14.35;100.00
75646;BME280;64237;52.438;13.240;2023-09-08T03:08:05;101716.44;;;14.30;100.00
75646;BME280;64237;52.438;13.240;2023-09-08T03:10:37;101718.25;;;14.36;100.00
75646;BME280;64237;52.438;13.240;2023-09-08T03:13:08;101716.31;;;14.37;100.00
75646;BME280;64237;52.438;13.240;2023-09-08T03:15:34;101715.00;;;14.39;100.00
75646;BME280;64237;52.438;13.240;2023-09-08T03:17:59;101714.38;;;14.37;100.00
75646;BME280;64237;52.438;13.240;2023-09-08T03:20:25;101714.25;;;14.32;100.00
75646;BME280;64237;52.438;13.240;2023-09-08T03:22:56;101710.19;;;14.23;100.00
75646;BME280;64237;52.438;13.240;2023-09-08T03:25:24;101709.56;;;14.21;100.00
75646;BME280;64237;52.438;13.240;2023-09-08T03:27:56;101713.69;;;14.19;100.00
75646;BME280;64237;52.438;13.240;2023-09-08T03:30:21;101706.66;;;14.16;100.00
75646;BME280;64237;52.438;13.240;2023-09-08T03:32:46;101717.56;;;14.18;100.00
75646;BME280;64237;52.438;13.240;2023-09-08T03:35:12;101713.09;;;14.17;100.00
75646;BME280;64237;52.438;13.240;2023-09-08T03:37:40;101711.38;;;14.16;100.00
75646;BME280;64237;52.438;13.240;2023-09-08T03:40:08;101711.75;;;14.19;100.00
75646;BME280;64237;52.438;13.240;2023-09-08T03:42:40;101711.16;;;14.17;100.00
75646;BME280;64237;52.438;13.240;2023-09-08T03:45:07;101716.72;;;14.17;100.00
75646;BME280;64237;52.438;13.240;2023-09-08T03:47:39;101713.31;;;14.15;100.00
75646;BME280;64237;52.438;13.240;2023-09-08T03:50:04;101718.53;;;14.12;100.00
75646;BME280;64237;52.438;13.240;2023-09-08T03:52:34;101705.84;;;14.04;100.00
75646;BME280;64237;52.438;13.240;2023-09-08T03:54:59;101718.66;;;14.05;100.00
75646;BME280;64237;52.438;13.240;2023-09-08T03:57:27;101724.47;;;14.03;100.00
75646;BME280;64237;52.438;13.240;2023-09-08T03:59:53;101718.16;;;14.08;100.00
75646;BME280;64237;52.438;13.240;2023-09-08T04:02:21;101722.88;;;14.07;100.00
75646;BME280;64237;52.438;13.240;2023-09-08T04:04:46;101722.53;;;14.04;100.00
75646;BME280;64237;52.438;13.240;2023-09-08T04:07:11;101719.28;;;14.07;100.00
75646;BME280;64237;52.438;13.240;2023-09-08T04:09:37;101725.94;;;14.06;100.00
75646;BME280;64237;52.438;13.240;2023-09-08T04:12:08;101720.25;;;14.01;100.00
75646;BME280;64237;52.438;13.240;2023-09-08T04:14:36;101720.72;;;13.98;100.00
75646;BME280;64237;52.438;13.240;2023-09-08T04:17:01;101722.53;;;13.92;100.00
75646;BME280;64237;52.438;13.240;2023-09-08T04:19:26;101716.72;;;13.94;100.00
75646;BME280;64237;52.438;13.240;2023-09-08T04:21:55;101720.09;;;13.96;100.00
75646;BME280;64237;52.438;13.240;2023-09-08T04:24:23;101711.28;;;13.99;100.00
75646;BME280;64237;52.438;13.240;2023-09-08T04:26:51;101721.25;;;14.70;100.00
75646;BME280;64237;52.438;13.240;2023-09-08T04:29:16;101713.16;;;16.86;100.00
75646;BME280;64237;52.438;13.240;2023-09-08T04:31:42;101715.75;;;17.78;100.00
75646;BME280;64237;52.438;13.240;2023-09-08T04:34:13;101720.94;;;16.84;97.06
75646;BME280;64237;52.438;13.240;2023-09-08T04:36:38;101726.22;;;15.70;100.00
75646;BME280;64237;52.438;13.240;2023-09-08T04:39:04;101726.06;;;15.15;100.00
75646;BME280;64237;52.438;13.240;2023-09-08T04:41:30;101728.59;;;14.76;100.00
75646;BME280;64237;52.438;13.240;2023-09-08T04:43:58;101738.72;;;14.54;100.00
75646;BME280;64237;52.438;13.240;2023-09-08T04:46:30;101734.63;;;14.45;100.00
75646;BME280;64237;52.438;13.240;2023-09-08T04:48:56;101727.47;;;14.37;100.00
75646;BME280;64237;52.438;13.240;2023-09-08T04:51:24;101722.63;;;14.32;100.00
75646;BME280;64237;52.438;13.240;2023-09-08T04:53:49;101727.00;;;14.28;100.00
75646;BME280;64237;52.438;13.240;2023-09-08T04:56:14;101727.72;;;14.24;100.00
75646;BME280;64237;52.438;13.240;2023-09-08T04:58:46;101720.84;;;14.26;100.00
75646;BME280;64237;52.438;13.240;2023-09-08T05:01:11;101726.28;;;14.21;100.00
75646;BME280;64237;52.438;13.240;2023-09-08T05:03:36;101725.19;;;14.22;100.00
75646;BME280;64237;52.438;13.240;2023-09-08T05:06:02;101728.56;;;14.24;100.00
75646;BME280;64237;52.438;13.240;2023-09-08T05:08:27;101732.44;;;14.23;100.00
75646;BME280;64237;52.438;13.240;2023-09-08T05:10:55;101736.19;;;14.29;100.00
75646;BME280;64237;52.438;13.240;2023-09-08T05:13:21;101737.03;;;14.29;100.00
75646;BME280;64237;52.438;13.240;2023-09-08T05:15:51;101739.81;;;14.29;100.00
75646;BME280;64237;52.438;13.240;2023-09-08T05:18:17;101727.59;;;14.30;100.00
75646;BME280;64237;52.438;13.240;2023-09-08T05:20:49;101736.53;;;14.32;100.00
75646;BME280;64237;52.438;13.240;2023-09-08T05:23:14;101729.56;;;14.42;100.00
75646;BME280;64237;52.438;13.240;2023-09-08T05:25:41;101728.22;;;14.44;100.00
75646;BME280;64237;52.438;13.240;2023-09-08T05:28:10;101729.44;;;14.48;100.00
75646;BME280;64237;52.438;13.240;2023-09-08T05:30:35;101726.97;;;14.52;100.00
75646;BME280;64237;52.438;13.240;2023-09-08T05:33:01;101731.56;;;14.58;100.00
75646;BME280;64237;52.438;13.240;2023-09-08T05:35:26;101723.31;;;14.63;100.00
75646;BME280;64237;52.438;13.240;2023-09-08T05:37:52;101727.31;;;14.67;100.00
75646;BME280;64237;52.438;13.240;2023-09-08T05:40:20;101726.84;;;14.70;100.00
75646;BME280;64237;52.438;13.240;2023-09-08T05:42:51;101728.59;;;14.76;100.00
75646;BME280;64237;52.438;13.240;2023-09-08T05:45:17;101732.72;;;14.85;100.00
75646;BME280;64237;52.438;13.240;2023-09-08T05:47:42;101730.63;;;14.92;100.00
75646;BME280;64237;52.438;13.240;2023-09-08T05:50:08;101734.69;;;15.01;100.00
75646;BME280;64237;52.438;13.240;2023-09-08T05:52:36;101733.91;;;15.18;100.00
75646;BME280;64237;52.438;13.240;2023-09-08T05:55:04;101728.84;;;15.15;100.00
75646;BME280;64237;52.438;13.240;2023-09-08T05:57:30;101731.81;;;15.25;100.00
75646;BME280;64237;52.438;13.240;2023-09-08T05:59:58;101734.88;;;15.40;100.00
75646;BME280;64237;52.438;13.240;2023-09-08T06:02:23;101731.09;;;15.46;100.00
75646;BME280;64237;52.438;13.240;2023-09-08T06:04:49;101733.16;;;15.67;100.00
75646;BME280;64237;52.438;13.240;2023-09-08T06:07:14;101732.81;;;15.81;100.00
75646;BME280;64237;52.438;13.240;2023-09-08T06:09:40;101739.16;;;15.93;100.00
75646;BME280;64237;52.438;13.240;2023-09-08T06:12:05;101727.22;;;16.14;100.00
75646;BME280;64237;52.438;13.240;2023-09-08T06:14:31;101733.16;;;16.18;100.00
75646;BME280;64237;52.438;13.240;2023-09-08T06:16:56;101724.38;;;16.31;100.00
75646;BME280;64237;52.438;13.240;2023-09-08T06:19:21;101726.63;;;16.51;100.00
75646;BME280;64237;52.438;13.240;2023-09-08T06:21:49;101732.94;;;16.63;100.00
75646;BME280;64237;52.438;13.240;2023-09-08T06:24:15;101726.06;;;16.70;100.00
75646;BME280;64237;52.438;13.240;2023-09-08T06:26:40;101728.75;;;16.82;100.00
75646;BME280;64237;52.438;13.240;2023-09-08T06:29:10;101727.75;;;16.93;100.00
75646;BME280;64237;52.438;13.240;2023-09-08T06:31:41;101730.94;;;17.02;100.00
75646;BME280;64237;52.438;13.240;2023-09-08T06:34:09;101728.56;;;17.16;100.00
75646;BME280;64237;52.438;13.240;2023-09-08T06:36:35;101726.47;;;17.28;99.51
75646;BME280;64237;52.438;13.240;2023-09-08T06:39:01;101719.91;;;17.44;98.96
75646;BME280;64237;52.438;13.240;2023-09-08T06:41:27;101726.16;;;17.51;98.91
75646;BME280;64237;52.438;13.240;2023-09-08T06:43:55;101728.56;;;17.69;97.23
75646;BME280;64237;52.438;13.240;2023-09-08T06:46:20;101723.56;;;17.76;95.92
75646;BME280;64237;52.438;13.240;2023-09-08T06:48:46;101712.44;;;17.81;96.78
75646;BME280;64237;52.438;13.240;2023-09-08T06:51:11;101713.69;;;18.01;94.55
75646;BME280;64237;52.438;13.240;2023-09-08T06:53:39;101724.41;;;18.09;95.03
75646;BME280;64237;52.438;13.240;2023-09-08T06:56:04;101717.16;;;18.13;95.37
75646;BME280;64237;52.438;13.240;2023-09-08T06:58:33;101715.59;;;18.32;94.70
75646;BME280;64237;52.438;13.240;2023-09-08T07:00:58;101715.41;;;18.49;90.32
75646;BME280;64237;52.438;13.240;2023-09-08T07:03:27;101721.66;;;18.66;90.15
75646;BME280;64237;52.438;13.240;2023-09-08T07:05:52;101721.97;;;18.70;89.99
75646;BME280;64237;52.438;13.240;2023-09-08T07:08:17;101725.63;;;18.70;91.09
75646;BME280;64237;52.438;13.240;2023-09-08T07:10:43;101724.53;;;18.76;90.01
75646;BME280;64237;52.438;13.240;2023-09-08T07:13:09;101723.72;;;18.81;90.43
75646;BME280;64237;52.438;13.240;2023-09-08T07:15:34;101723.97;;;18.84;91.32
75646;BME280;64237;52.438;13.240;2023-09-08T07:17:59;101715.06;;;18.93;90.21
75646;BME280;64237;52.438;13.240;2023-09-08T07:20:25;101727.16;;;19.03;89.67
75646;BME280;64237;52.438;13.240;2023-09-08T07:22:50;101725.53;;;19.38;89.06
75646;BME280;64237;52.438;13.240;2023-09-08T07:25:18;101724.16;;;19.45;87.48
75646;BME280;64237;52.438;13.240;2023-09-08T07:27:45;101727.00;;;19.50;86.28
75646;BME280;64237;52.438;13.240;2023-09-08T07:30:10;101720.56;;;19.60;85.36
75646;BME280;64237;52.438;13.240;2023-09-08T07:32:36;101718.31;;;19.62;85.76
75646;BME280;64237;52.438;13.240;2023-09-08T07:35:01;101726.16;;;19.70;84.60
75646;BME280;64237;52.438;13.240;2023-09-08T07:37:27;101726.16;;;19.80;83.28
75646;BME280;64237;52.438;13.240;2023-09-08T07:39:52;101728.44;;;19.89;85.06
75646;BME280;64237;52.438;13.240;2023-09-08T07:42:17;101734.03;;;19.94;85.30
75646;BME280;64237;52.438;13.240;2023-09-08T07:44:44;101735.72;;;20.00;84.85
75646;BME280;64237;52.438;13.240;2023-09-08T07:47:10;101727.56;;;20.08;83.27
75646;BME280;64237;52.438;13.240;2023-09-08T07:49:35;101723.31;;;20.16;82.61
75646;BME280;64237;52.438;13.240;2023-09-08T07:52:01;101728.38;;;20.29;82.95
75646;BME280;64237;52.438;13.240;2023-09-08T07:54:26;101729.75;;;20.47;81.88
75646;BME280;64237;52.438;13.240;2023-09-08T07:56:52;101730.03;;;20.56;81.11
75646;BME280;64237;52.438;13.240;2023-09-08T07:59:17;101732.81;;;20.61;80.94
75646;BME280;64237;52.438;13.240;2023-09-08T08:01:43;101742.00;;;20.81;79.26
75646;BME280;64237;52.438;13.240;2023-09-08T08:04:08;101746.50;;;20.87;80.26
75646;BME280;64237;52.438;13.240;2023-09-08T08:06:34;101744.50;;;20.93;79.64
75646;BME280;64237;52.438;13.240;2023-09-08T08:08:59;101742.13;;;21.15;77.95
75646;BME280;64237;52.438;13.240;2023-09-08T08:11:24;101741.28;;;21.15;77.48
75646;BME280;64237;52.438;13.240;2023-09-08T08:13:50;101746.03;;;21.30;77.08
75646;BME280;64237;52.438;13.240;2023-09-08T08:16:16;101733.06;;;21.34;76.38
75646;BME280;64237;52.438;13.240;2023-09-08T08:18:41;101733.50;;;21.51;75.60
75646;BME280;64237;52.438;13.240;2023-09-08T08:21:07;101727.81;;;21.56;75.88
75646;BME280;64237;52.438;13.240;2023-09-08T08:23:32;101721.81;;;21.68;79.51
75646;BME280;64237;52.438;13.240;2023-09-08T08:25:59;101722.00;;;21.81;78.47
75646;BME280;64237;52.438;13.240;2023-09-08T08:28:24;101725.22;;;21.99;77.49
75646;BME280;64237;52.438;13.240;2023-09-08T08:30:50;101720.53;;;22.18;73.15
75646;BME280;64237;52.438;13.240;2023-09-08T08:33:16;101720.38;;;22.33;71.29
75646;BME280;64237;52.438;13.240;2023-09-08T08:35:41;101720.34;;;22.38;73.27
75646;BME280;64237;52.438;13.240;2023-09-08T08:38:06;101715.66;;;22.52;71.53
75646;BME280;64237;52.438;13.240;2023-09-08T08:40:32;101711.22;;;22.70;70.94
75646;BME280;64237;52.438;13.240;2023-09-08T08:42:59;101714.47;;;22.82;68.14
75646;BME280;64237;52.438;13.240;2023-09-08T08:45:26;101711.00;;;22.90;70.90
75646;BME280;64237;52.438;13.240;2023-09-08T08:47:52;101718.53;;;22.95;68.17
75646;BME280;64237;52.438;13.240;2023-09-08T08:50:18;101713.38;;;23.02;67.18
75646;BME280;64237;52.438;13.240;2023-09-08T08:52:44;101711.00;;;23.09;69.06
75646;BME280;64237;52.438;13.240;2023-09-08T08:55:11;101709.63;;;23.25;67.68
75646;BME280;64237;52.438;13.240;2023-09-08T08:57:40;101708.41;;;23.50;65.47
75646;BME280;64237;52.438;13.240;2023-09-08T09:00:11;101705.44;;;23.61;67.36
75646;BME280;64237;52.438;13.240;2023-09-08T09:02:39;101705.66;;;23.64;64.58
75646;BME280;64237;52.438;13.240;2023-09-08T09:05:05;101702.91;;;23.78;66.06
75646;BME280;64237;52.438;13.240;2023-09-08T09:07:32;101706.38;;;23.88;65.03
75646;BME280;64237;52.438;13.240;2023-09-08T09:09:58;101703.47;;;23.93;62.33
75646;BME280;64237;52.438;13.240;2023-09-08T09:12:24;101701.34;;;24.18;63.00
75646;BME280;64237;52.438;13.240;2023-09-08T09:14:53;101700.22;;;24.33;63.41
75646;BME280;64237;52.438;13.240;2023-09-08T09:17:18;101701.91;;;24.47;61.17
75646;BME280;64237;52.438;13.240;2023-09-08T09:19:43;101701.81;;;24.52;61.92
75646;BME280;64237;52.438;13.240;2023-09-08T09:22:09;101703.81;;;24.66;60.57
75646;BME280;64237;52.438;13.240;2023-09-08T09:27:04;101707.91;;;24.87;59.97
75646;BME280;64237;52.438;13.240;2023-09-08T09:29:34;101695.84;;;25.09;60.51
75646;BME280;64237;52.438;13.240;2023-09-08T09:32:04;101703.44;;;25.22;58.34
75646;BME280;64237;52.438;13.240;2023-09-08T09:34:31;101706.38;;;25.31;58.59
75646;BME280;64237;52.438;13.240;2023-09-08T09:36:56;101696.25;;;25.38;57.55
75646;BME280;64237;52.438;13.240;2023-09-08T09:39:24;101704.38;;;25.67;57.38
75646;BME280;64237;52.438;13.240;2023-09-08T09:41:54;101704.56;;;25.93;56.29
75646;BME280;64237;52.438;13.240;2023-09-08T09:44:21;101696.31;;;25.83;54.88
75646;BME280;64237;52.438;13.240;2023-09-08T09:46:46;101697.38;;;26.18;57.75
75646;BME280;64237;52.438;13.240;2023-09-08T09:49:13;101701.50;;;26.34;56.23
75646;BME280;64237;52.438;13.240;2023-09-08T09:51:43;101699.25;;;26.53;59.80
75646;BME280;64237;52.438;13.240;2023-09-08T09:54:09;101685.56;;;26.55;56.00
75646;BME280;64237;52.438;13.240;2023-09-08T09:56:37;101690.59;;;26.58;54.62
75646;BME280;64237;52.438;13.240;2023-09-08T09:59:03;101682.44;;;26.74;53.88
75646;BME280;64237;52.438;13.240;2023-09-08T10:01:29;101683.31;;;26.92;57.11
75646;BME280;64237;52.438;13.240;2023-09-08T10:03:55;101678.47;;;26.84;53.12
75646;BME280;64237;52.438;13.240;2023-09-08T10:06:21;101683.63;;;26.82;52.19
75646;BME280;64237;52.438;13.240;2023-09-08T10:08:47;101674.28;;;26.90;54.70
75646;BME280;64237;52.438;13.240;2023-09-08T10:11:16;101672.94;;;26.79;56.94
75646;BME280;64237;52.438;13.240;2023-09-08T10:13:46;101670.59;;;26.81;53.53
75646;BME280;64237;52.438;13.240;2023-09-08T10:16:13;101665.81;;;26.99;52.32
75646;BME280;64237;52.438;13.240;2023-09-08T10:18:45;101670.28;;;26.91;52.03
75646;BME280;64237;52.438;13.240;2023-09-08T10:21:12;101671.94;;;26.92;52.06
75646;BME280;64237;52.438;13.240;2023-09-08T10:24:04;101665.84;;;27.16;55.66
75646;BME280;64237;52.438;13.240;2023-09-08T10:26:34;101660.63;;;27.09;54.51
75646;BME280;64237;52.438;13.240;2023-09-08T10:29:01;101667.03;;;27.41;51.29
75646;BME280;64237;52.438;13.240;2023-09-08T10:31:28;101664.19;;;27.58;50.99
75646;BME280;64237;52.438;13.240;2023-09-08T10:33:55;101657.13;;;27.73;48.86
75646;BME280;64237;52.438;13.240;2023-09-08T10:36:25;101654.47;;;27.76;51.76
75646;BME280;64237;52.438;13.240;2023-09-08T10:38:50;101647.47;;;27.65;48.55
75646;BME280;64237;52.438;13.240;2023-09-08T10:44:00;101658.13;;;27.85;49.75
75646;BME280;64237;52.438;13.240;2023-09-08T10:46:27;101657.75;;;27.95;47.29
75646;BME280;64237;52.438;13.240;2023-09-08T10:48:55;101648.53;;;27.98;45.93
75646;BME280;64237;52.438;13.240;2023-09-08T10:51:35;101652.28;;;27.90;47.19
75646;BME280;64237;52.438;13.240;2023-09-08T10:54:01;101651.81;;;28.18;48.71
75646;BME280;64237;52.438;13.240;2023-09-08T10:56:29;101651.19;;;28.21;47.23
75646;BME280;64237;52.438;13.240;2023-09-08T10:58:54;101653.00;;;28.34;46.16
75646;BME280;64237;52.438;13.240;2023-09-08T11:01:21;101654.38;;;28.57;47.50
75646;BME280;64237;52.438;13.240;2023-09-08T11:03:52;101654.97;;;28.72;45.14
75646;BME280;64237;52.438;13.240;2023-09-08T11:06:19;101639.16;;;28.83;45.43
75646;BME280;64237;52.438;13.240;2023-09-08T11:08:49;101650.44;;;28.71;43.88
75646;BME280;64237;52.438;13.240;2023-09-08T11:11:21;101646.22;;;28.77;46.14
75646;BME280;64237;52.438;13.240;2023-09-08T11:13:46;101650.13;;;28.63;44.60
75646;BME280;64237;52.438;13.240;2023-09-08T11:16:15;101645.34;;;28.55;44.03
75646;BME280;64237;52.438;13.240;2023-09-08T11:18:41;101650.25;;;28.46;44.50
75646;BME280;64237;52.438;13.240;2023-09-08T11:21:08;101652.50;;;28.23;43.87
75646;BME280;64237;52.438;13.240;2023-09-08T11:23:34;101646.13;;;28.35;44.81
75646;BME280;64237;52.438;13.240;2023-09-08T11:25:59;101641.00;;;28.49;44.02
75646;BME280;64237;52.438;13.240;2023-09-08T11:28:26;101645.13;;;28.60;44.10
75646;BME280;64237;52.438;13.240;2023-09-08T11:30:55;101641.69;;;28.46;43.65
75646;BME280;64237;52.438;13.240;2023-09-08T11:33:22;101643.34;;;28.56;43.32
75646;BME280;64237;52.438;13.240;2023-09-08T11:35:56;101637.78;;;28.89;44.67
75646;BME280;64237;52.438;13.240;2023-09-08T11:38:29;101629.44;;;28.84;44.01
75646;BME280;64237;52.438;13.240;2023-09-08T11:40:56;101635.81;;;28.81;43.49
75646;BME280;64237;52.438;13.240;2023-09-08T11:43:31;101634.25;;;28.92;43.62
75646;BME280;64237;52.438;13.240;2023-09-08T11:45:58;101631.13;;;29.26;40.65
75646;BME280;64237;52.438;13.240;2023-09-08T11:48:24;101636.81;;;29.06;41.55
75646;BME280;64237;52.438;13.240;2023-09-08T11:50:53;101620.94;;;28.75;42.43
75646;BME280;64237;52.438;13.240;2023-09-08T11:53:20;101626.59;;;28.84;42.72
75646;BME280;64237;52.438;13.240;2023-09-08T11:55:46;101621.97;;;29.00;45.75
75646;BME280;64237;52.438;13.240;2023-09-08T11:58:12;101626.09;;;28.82;40.22
75646;BME280;64237;52.438;13.240;2023-09-08T12:00:40;101619.72;;;28.85;44.04
75646;BME280;64237;52.438;13.240;2023-09-08T12:03:10;101617.53;;;28.82;41.62
75646;BME280;64237;52.438;13.240;2023-09-08T12:05:36;101608.88;;;28.70;41.81
75646;BME280;64237;52.438;13.240;2023-09-08T12:08:03;101613.50;;;28.83;42.38
75646;BME280;64237;52.438;13.240;2023-09-08T12:10:39;101610.19;;;29.02;41.46
75646;BME280;64237;52.438;13.240;2023-09-08T12:13:04;101602.13;;;28.83;42.48
75646;BME280;64237;52.438;13.240;2023-09-08T12:17:58;101602.34;;;28.69;41.78
75646;BME280;64237;52.438;13.240;2023-09-08T12:20:24;101598.00;;;28.72;41.79
75646;BME280;64237;52.438;13.240;2023-09-08T12:22:50;101598.66;;;28.98;41.69
75646;BME280;64237;52.438;13.240;2023-09-08T12:25:16;101593.03;;;29.10;45.51
75646;BME280;64237;52.438;13.240;2023-09-08T12:27:42;101600.34;;;28.70;41.36
75646;BME280;64237;52.438;13.240;2023-09-08T12:30:07;101596.81;;;28.73;40.52
75646;BME280;64237;52.438;13.240;2023-09-08T12:32:34;101596.22;;;28.58;42.20
75646;BME280;64237;52.438;13.240;2023-09-08T12:35:02;101582.69;;;28.26;41.88
75646;BME280;64237;52.438;13.240;2023-09-08T12:37:28;101582.56;;;28.14;43.68
75646;BME280;64237;52.438;13.240;2023-09-08T12:39:57;101583.38;;;28.14;50.32
75646;BME280;64237;52.438;13.240;2023-09-08T12:42:32;101581.34;;;28.15;40.68
75646;BME280;64237;52.438;13.240;2023-09-08T12:44:57;101572.69;;;28.11;44.22
75646;BME280;64237;52.438;13.240;2023-09-08T12:47:23;101570.84;;;28.07;48.71
75646;BME280;64237;52.438;13.240;2023-09-08T12:49:48;101572.22;;;28.01;46.20